createdAt,value
2023-02-11T00:00:05.301Z,103403.94
2023-02-11T00:00:42.866Z,103406.13
2023-02-11T00:01:32.650Z,103415.06
2023-02-11T00:02:05.310Z,103408.53
2023-02-11T00:02:41.066Z,103403.94
2023-02-11T00:03:14.938Z,103418.28
2023-02-11T00:03:46.580Z,103418.84
2023-02-11T00:04:19.443Z,103415.84
2023-02-11T00:04:55.858Z,103411.53
2023-02-11T00:05:27.339Z,103419.66
2023-02-11T00:06:05.020Z,103407.72
2023-02-11T00:07:25.803Z,103401.50
2023-02-11T00:07:57.280Z,103396.38
2023-02-11T00:08:31.329Z,103395.00
2023-02-11T00:09:03.160Z,103401.22
2023-02-11T00:09:37.503Z,103390.97
2023-02-11T00:10:09.451Z,103401.75
2023-02-11T00:10:40.980Z,103388.50
2023-02-11T00:11:15.082Z,103393.66
2023-02-11T00:11:46.807Z,103394.19
2023-02-11T00:12:19.687Z,103397.47
2023-02-11T00:12:51.318Z,103394.72
2023-02-11T00:13:26.089Z,103400.13
2023-02-11T00:14:04.875Z,103396.09
2023-02-11T00:14:39.425Z,103401.22
2023-02-11T00:15:13.680Z,103399.34
2023-02-11T00:15:46.178Z,103413.69
2023-02-11T00:16:20.336Z,103399.09
2023-02-11T00:16:54.421Z,103398.00
2023-02-11T00:17:26.077Z,103390.44
2023-02-11T00:17:57.939Z,103406.94
2023-02-11T00:18:29.551Z,103399.34
2023-02-11T00:19:05.456Z,103398.00
2023-02-11T00:19:37.081Z,103401.78
2023-02-11T00:20:09.396Z,103400.97
2023-02-11T00:20:42.219Z,103406.94
2023-02-11T00:21:17.319Z,103399.88
2023-02-11T00:21:51.245Z,103402.59
2023-02-11T00:22:22.964Z,103401.78
2023-02-11T00:22:57.375Z,103401.78
2023-02-11T00:23:28.928Z,103394.22
2023-02-11T00:24:02.916Z,103392.03
2023-02-11T00:24:52.772Z,103398.53
2023-02-11T00:25:24.219Z,103402.31
2023-02-11T00:25:58.119Z,103402.31
2023-02-11T00:26:35.030Z,103397.47
2023-02-11T00:27:06.576Z,103403.41
2023-02-11T00:27:38.161Z,103397.47
2023-02-11T00:28:10.489Z,103402.31
2023-02-11T00:28:42.169Z,103406.13
2023-02-11T00:29:16.022Z,103400.44
2023-02-11T00:29:50.295Z,103406.13
2023-02-11T00:30:21.965Z,103405.59
2023-02-11T00:30:57.635Z,103402.88
2023-02-11T00:31:32.195Z,103401.25
2023-02-11T00:32:08.038Z,103409.91
2023-02-11T00:32:39.509Z,103396.66
2023-02-11T00:33:14.128Z,103402.34
2023-02-11T00:33:49.100Z,103402.88
2023-02-11T00:34:20.698Z,103408.00
2023-02-11T00:34:56.094Z,103402.88
2023-02-11T00:35:30.240Z,103405.59
2023-02-11T00:36:06.475Z,103412.34
2023-02-11T00:36:38.005Z,103407.72
2023-02-11T00:37:09.884Z,103396.13
2023-02-11T00:37:41.430Z,103402.88
2023-02-11T00:38:15.274Z,103401.25
2023-02-11T00:38:48.187Z,103408.00
2023-02-11T00:39:21.860Z,103406.13
2023-02-11T00:39:53.470Z,103396.66
2023-02-11T00:40:25.051Z,103405.31
2023-02-11T00:40:56.509Z,103408.00
2023-02-11T00:41:28.254Z,103405.31
2023-02-11T00:42:02.266Z,103415.03
2023-02-11T00:42:35.739Z,103419.38
2023-02-11T00:43:07.298Z,103400.44
2023-02-11T00:43:39.729Z,103405.59
2023-02-11T00:44:11.248Z,103408.56
2023-02-11T00:44:44.936Z,103412.09
2023-02-11T00:45:19.213Z,103411.53
2023-02-11T00:45:50.999Z,103402.88
2023-02-11T00:46:25.772Z,103405.06
2023-02-11T00:46:57.330Z,103405.59
2023-02-11T00:48:17.736Z,103412.06
2023-02-11T00:48:51.665Z,103407.19
2023-02-11T00:49:23.247Z,103405.31
2023-02-11T00:49:57.201Z,103406.66
2023-02-11T00:50:28.704Z,103411.25
2023-02-11T00:51:03.032Z,103401.25
2023-02-11T00:51:34.757Z,103406.13
2023-02-11T00:52:06.673Z,103409.91
2023-02-11T00:52:40.185Z,103403.16
2023-02-11T00:53:12.120Z,103417.75
2023-02-11T00:53:43.785Z,103409.66
2023-02-11T00:54:21.030Z,103406.16
2023-02-11T00:54:56.887Z,103400.44
2023-02-11T00:55:31.066Z,103400.72
2023-02-11T00:56:02.630Z,103404.25
2023-02-11T00:56:35.041Z,103400.97
2023-02-11T00:57:06.619Z,103397.22
2023-02-11T00:57:38.028Z,103403.16
2023-02-11T00:58:30.403Z,103398.84
2023-02-11T00:59:01.869Z,103408.81
2023-02-11T00:59:33.283Z,103402.59
2023-02-11T01:00:07.222Z,103401.78
2023-02-11T01:00:38.681Z,103397.22
2023-02-11T01:01:12.103Z,103397.47
2023-02-11T01:01:43.653Z,103387.19
2023-02-11T01:02:15.451Z,103394.22
2023-02-11T01:02:46.903Z,103390.44
2023-02-11T01:03:19.713Z,103399.63
2023-02-11T01:03:53.399Z,103396.66
2023-02-11T01:04:24.828Z,103392.31
2023-02-11T01:04:57.431Z,103383.97
2023-02-11T01:05:31.560Z,103389.41
2023-02-11T01:06:03.393Z,103383.69
2023-02-11T01:06:34.956Z,103383.97
2023-02-11T01:07:06.580Z,103383.97
2023-02-11T01:07:38.151Z,103388.28
2023-02-11T01:08:12.793Z,103383.97
2023-02-11T01:08:46.730Z,103385.56
2023-02-11T01:09:21.016Z,103375.34
2023-02-11T01:09:52.645Z,103374.47
2023-02-11T01:10:26.660Z,103373.94
2023-02-11T01:11:01.669Z,103378.56
2023-02-11T01:11:33.211Z,103367.50
2023-02-11T01:12:05.076Z,103368.81
2023-02-11T01:12:36.841Z,103375.06
2023-02-11T01:13:08.426Z,103375.06
2023-02-11T01:13:40.068Z,103375.34
2023-02-11T01:14:12.017Z,103382.38
2023-02-11T01:14:53.544Z,103377.50
2023-02-11T01:15:25.382Z,103381.03
2023-02-11T01:15:58.109Z,103372.66
2023-02-11T01:16:29.883Z,103374.56
2023-02-11T01:17:03.884Z,103385.91
2023-02-11T01:17:36.235Z,103386.44
2023-02-11T01:18:08.881Z,103386.19
2023-02-11T01:18:41.936Z,103381.06
2023-02-11T01:19:13.629Z,103375.88
2023-02-11T01:19:45.310Z,103382.16
2023-02-11T01:20:21.847Z,103375.13
2023-02-11T01:20:54.143Z,103379.16
2023-02-11T01:21:28.875Z,103365.63
2023-02-11T01:22:00.437Z,103360.50
2023-02-11T01:22:32.243Z,103369.13
2023-02-11T01:23:03.831Z,103356.97
2023-02-11T01:23:37.426Z,103352.38
2023-02-11T01:24:15.909Z,103353.19
2023-02-11T01:24:47.606Z,103350.19
2023-02-11T01:25:21.673Z,103349.94
2023-02-11T01:25:54.330Z,103351.56
2023-02-11T01:26:25.997Z,103349.41
2023-02-11T01:26:57.510Z,103343.47
2023-02-11T01:27:29.219Z,103344.53
2023-02-11T01:28:00.795Z,103345.91
2023-02-11T01:28:33.218Z,103351.03
2023-02-11T01:29:04.742Z,103344.28
2023-02-11T01:29:38.425Z,103345.91
2023-02-11T01:30:12.488Z,103354.03
2023-02-11T01:30:46.186Z,103351.59
2023-02-11T01:31:17.688Z,103358.09
2023-02-11T01:31:49.390Z,103350.25
2023-02-11T01:32:20.894Z,103361.59
2023-02-11T01:32:52.402Z,103361.59
2023-02-11T01:33:26.571Z,103353.28
2023-02-11T01:33:58.575Z,103364.88
2023-02-11T01:34:30.348Z,103363.28
2023-02-11T01:35:02.110Z,103380.56
2023-02-11T01:35:33.631Z,103376.50
2023-02-11T01:36:06.360Z,103394.09
2023-02-11T01:36:39.426Z,103375.19
2023-02-11T01:37:11.050Z,103390.84
2023-02-11T01:37:42.553Z,103386.25
2023-02-11T01:38:25.398Z,103390.34
2023-02-11T01:38:56.961Z,103395.19
2023-02-11T01:39:30.528Z,103398.16
2023-02-11T01:40:23.121Z,103400.59
2023-02-11T01:41:08.973Z,103392.75
2023-02-11T01:41:40.410Z,103394.16
2023-02-11T01:42:19.643Z,103405.19
2023-02-11T01:42:51.253Z,103396.84
2023-02-11T01:43:24.257Z,103396.56
2023-02-11T01:43:55.735Z,103396.25
2023-02-11T01:44:31.957Z,103402.22
2023-02-11T01:45:41.839Z,103401.13
2023-02-11T01:46:30.884Z,103399.22
2023-02-11T01:47:04.776Z,103388.69
2023-02-11T01:47:36.370Z,103401.13
2023-02-11T01:48:11.193Z,103399.50
2023-02-11T01:48:47.215Z,103403.81
2023-02-11T01:49:24.423Z,103397.59
2023-02-11T01:49:59.092Z,103394.91
2023-02-11T01:50:31.481Z,103382.72
2023-02-11T01:52:12.705Z,103393.00
2023-02-11T01:52:47.106Z,103395.97
2023-02-11T01:53:37.401Z,103387.59
2023-02-11T01:54:30.537Z,103392.19
2023-02-11T01:55:31.121Z,103389.75
2023-02-11T01:56:22.270Z,103382.72
2023-02-11T01:57:15.502Z,103391.66
2023-02-11T01:57:52.221Z,103388.94
2023-02-11T01:58:23.606Z,103388.44
2023-02-11T01:59:00.738Z,103389.22
2023-02-11T01:59:38.157Z,103394.66
2023-02-11T02:00:26.526Z,103403.88
2023-02-11T02:00:59.219Z,103402.25
2023-02-11T02:01:33.684Z,103401.19
2023-02-11T02:02:11.499Z,103397.94
2023-02-11T02:03:07.345Z,103398.75
2023-02-11T02:03:42.303Z,103406.34
2023-02-11T02:04:18.349Z,103402.53
2023-02-11T02:04:58.670Z,103409.03
2023-02-11T02:05:39.386Z,103409.84
2023-02-11T02:06:18.194Z,103406.34
2023-02-11T02:06:55.960Z,103402.81
2023-02-11T02:07:47.377Z,103407.16
2023-02-11T02:08:29.672Z,103412.56
2023-02-11T02:09:13.438Z,103402.00
2023-02-11T02:09:53.167Z,103404.72
2023-02-11T02:10:28.412Z,103399.31
2023-02-11T02:11:03.514Z,103400.94
2023-02-11T02:11:41.572Z,103389.59
2023-02-11T02:12:14.955Z,103396.63
2023-02-11T02:13:36.350Z,103393.09
2023-02-11T02:14:07.899Z,103393.34
2023-02-11T02:14:41.426Z,103389.56
2023-02-11T02:15:32.664Z,103376.59
2023-02-11T02:16:09.917Z,103383.34
2023-02-11T02:16:41.895Z,103394.97
2023-02-11T02:17:32.415Z,103388.19
2023-02-11T02:18:19.830Z,103383.63
2023-02-11T02:19:16.372Z,103390.91
2023-02-11T02:20:25.355Z,103381.44
2023-02-11T02:21:24.659Z,103384.97
2023-02-11T02:22:34.217Z,103394.69
2023-02-11T02:23:22.434Z,103388.22
2023-02-11T02:24:14.729Z,103384.44
2023-02-11T02:25:01.026Z,103392.81
2023-02-11T02:25:53.815Z,103390.94
2023-02-11T02:26:53.867Z,103387.41
2023-02-11T02:27:59.825Z,103383.09
2023-02-11T02:28:56.105Z,103382.56
2023-02-11T02:29:46.227Z,103375.53
2023-02-11T02:30:42.555Z,103375.53
2023-02-11T02:31:40.869Z,103391.22
2023-02-11T02:32:24.128Z,103382.31
2023-02-11T02:33:23.829Z,103384.19
2023-02-11T02:34:09.018Z,103382.84
2023-02-11T02:34:52.430Z,103391.78
2023-02-11T02:35:34.958Z,103376.13
2023-02-11T02:36:18.322Z,103384.25
2023-02-11T02:37:01.087Z,103384.25
2023-02-11T02:37:41.493Z,103380.47
2023-02-11T02:38:44.174Z,103369.91
2023-02-11T02:39:26.229Z,103359.38
2023-02-11T02:40:02.718Z,103366.16
2023-02-11T02:40:44.971Z,103369.66
2023-02-11T02:41:19.795Z,103360.72
2023-02-11T02:42:01.468Z,103356.16
2023-02-11T02:42:36.453Z,103357.78
2023-02-11T02:43:10.446Z,103362.63
2023-02-11T02:43:48.044Z,103364.25
2023-02-11T02:44:21.355Z,103360.47
2023-02-11T02:44:53.616Z,103369.94
2023-02-11T02:45:27.362Z,103369.66
2023-02-11T02:46:18.421Z,103358.84
2023-02-11T02:46:53.371Z,103361.53
2023-02-11T02:47:25.087Z,103357.25
2023-02-11T02:47:59.246Z,103358.84
2023-02-11T02:48:34.781Z,103360.19
2023-02-11T02:49:16.508Z,103363.44
2023-02-11T02:49:50.344Z,103351.84
2023-02-11T02:50:30.689Z,103367.50
2023-02-11T02:51:33.836Z,103376.16
2023-02-11T02:52:25.287Z,103372.91
2023-02-11T02:54:43.134Z,103374.53
2023-02-11T02:55:38.898Z,103373.72
2023-02-11T02:56:25.727Z,103376.44
2023-02-11T02:57:10.186Z,103375.34
2023-02-11T02:58:18.481Z,103381.56
2023-02-11T02:59:34.340Z,103376.97
2023-02-11T03:00:30.688Z,103376.16
2023-02-11T03:01:26.626Z,103368.84
2023-02-11T03:02:10.846Z,103365.34
2023-02-11T03:03:06.634Z,103370.75
2023-02-11T03:03:56.937Z,103373.44
2023-02-11T03:04:52.476Z,103376.97
2023-02-11T03:05:34.587Z,103368.84
2023-02-11T03:06:12.966Z,103367.22
2023-02-11T03:06:56.258Z,103362.63
2023-02-11T03:07:51.513Z,103352.09
2023-02-11T03:08:38.223Z,103371.56
2023-02-11T03:09:14.336Z,103355.31
2023-02-11T03:09:55.110Z,103358.03
2023-02-11T03:10:33.866Z,103352.91
2023-02-11T03:11:07.598Z,103350.22
2023-02-11T03:11:39.960Z,103356.16
2023-02-11T03:12:12.663Z,103365.88
2023-02-11T03:12:48.459Z,103355.06
2023-02-11T03:13:24.520Z,103361.28
2023-02-11T03:14:00.761Z,103359.13
2023-02-11T03:14:33.443Z,103353.97
2023-02-11T03:15:06.833Z,103350.75
2023-02-11T03:15:43.456Z,103356.41
2023-02-11T03:16:19.910Z,103345.88
2023-02-11T03:16:54.687Z,103346.41
2023-02-11T03:17:27.755Z,103343.16
2023-02-11T03:18:01.931Z,103347.47
2023-02-11T03:18:36.838Z,103347.47
2023-02-11T03:19:18.159Z,103342.59
2023-02-11T03:19:52.231Z,103341.25
2023-02-11T03:20:24.101Z,103331.81
2023-02-11T03:20:59.688Z,103338.84
2023-02-11T03:21:36.248Z,103339.91
2023-02-11T03:22:20.009Z,103328.56
2023-02-11T03:23:06.308Z,103338.84
2023-02-11T03:23:50.895Z,103339.38
2023-02-11T03:24:29.222Z,103334.53
2023-02-11T03:25:02.692Z,103331.84
2023-02-11T03:25:39.007Z,103325.88
2023-02-11T03:27:20.421Z,103325.34
2023-02-11T03:28:09.081Z,103325.34
2023-02-11T03:29:14.149Z,103329.38
2023-02-11T03:29:54.923Z,103327.75
2023-02-11T03:30:38.607Z,103326.69
2023-02-11T03:31:20.711Z,103333.97
2023-02-11T03:32:19.939Z,103332.09
2023-02-11T03:32:57.720Z,103326.16
2023-02-11T03:33:50.462Z,103336.97
2023-02-11T03:34:36.244Z,103338.59
2023-02-11T03:35:14.903Z,103338.59
2023-02-11T03:35:54.457Z,103335.34
2023-02-11T03:36:57.097Z,103335.06
2023-02-11T03:37:31.770Z,103342.38
2023-02-11T03:38:12.448Z,103338.31
2023-02-11T03:38:50.532Z,103333.50
2023-02-11T03:39:27.338Z,103334.59
2023-02-11T03:40:06.097Z,103330.78
2023-02-11T03:40:41.165Z,103326.47
2023-02-11T03:41:16.274Z,103328.59
2023-02-11T03:41:49.802Z,103326.69
2023-02-11T03:42:24.600Z,103331.31
2023-02-11T03:43:03.585Z,103336.44
2023-02-11T03:43:45.114Z,103332.41
2023-02-11T03:44:17.210Z,103321.88
2023-02-11T03:44:53.978Z,103336.72
2023-02-11T03:45:27.607Z,103317.56
2023-02-11T03:46:00.996Z,103318.31
2023-02-11T03:46:37.388Z,103322.09
2023-02-11T03:47:12.560Z,103325.63
2023-02-11T03:47:50.966Z,103312.38
2023-02-11T03:48:30.272Z,103314.03
2023-02-11T03:49:10.960Z,103313.47
2023-02-11T03:49:47.092Z,103307.81
2023-02-11T03:50:21.529Z,103311.88
2023-02-11T03:50:57.796Z,103313.22
2023-02-11T03:51:31.749Z,103308.09
2023-02-11T03:52:11.155Z,103310.00
2023-02-11T03:52:43.955Z,103305.38
2023-02-11T03:53:20.662Z,103318.91
2023-02-11T03:53:55.630Z,103316.75
2023-02-11T03:54:30.273Z,103319.72
2023-02-11T03:55:11.063Z,103318.91
2023-02-11T03:55:47.728Z,103315.41
2023-02-11T03:56:22.742Z,103320.28
2023-02-11T03:56:59.484Z,103315.16
2023-02-11T03:57:31.172Z,103321.09
2023-02-11T03:58:02.675Z,103324.88
2023-02-11T03:58:34.131Z,103329.19
2023-02-11T03:59:05.535Z,103320.56
2023-02-11T03:59:52.801Z,103327.59
2023-02-11T04:00:32.757Z,103329.47
2023-02-11T04:01:05.164Z,103333.81
2023-02-11T04:01:39.280Z,103331.91
2023-02-11T04:02:11.004Z,103328.94
2023-02-11T04:02:43.586Z,103338.94
2023-02-11T04:03:15.188Z,103329.75
2023-02-11T04:03:46.764Z,103341.63
2023-02-11T04:04:20.819Z,103325.44
2023-02-11T04:04:52.387Z,103335.69
2023-02-11T04:05:23.797Z,103347.03
2023-02-11T04:05:55.359Z,103330.56
2023-02-11T04:06:26.862Z,103340.56
2023-02-11T04:06:58.521Z,103335.69
2023-02-11T04:07:30.361Z,103337.88
2023-02-11T04:08:02.227Z,103342.44
2023-02-11T04:08:33.726Z,103340.81
2023-02-11T04:09:08.172Z,103338.66
2023-02-11T04:09:39.622Z,103346.25
2023-02-11T04:10:12.348Z,103348.66
2023-02-11T04:10:43.916Z,103350.28
2023-02-11T04:11:15.450Z,103340.28
2023-02-11T04:11:52.139Z,103334.59
2023-02-11T04:12:23.541Z,103338.38
2023-02-11T04:12:56.227Z,103345.69
2023-02-11T04:13:27.753Z,103339.47
2023-02-11T04:13:59.517Z,103342.97
2023-02-11T04:14:31.224Z,103346.50
2023-02-11T04:15:02.707Z,103337.03
2023-02-11T04:15:34.305Z,103342.69
2023-02-11T04:16:08.738Z,103334.34
2023-02-11T04:16:41.490Z,103338.09
2023-02-11T04:17:13.287Z,103342.13
2023-02-11T04:17:45.134Z,103329.47
2023-02-11T04:18:22.430Z,103341.63
2023-02-11T04:19:14.417Z,103356.19
2023-02-11T04:19:48.024Z,103338.63
2023-02-11T04:20:21.969Z,103346.97
2023-02-11T04:20:53.494Z,103346.16
2023-02-11T04:21:27.432Z,103342.13
2023-02-11T04:21:59.166Z,103345.34
2023-02-11T04:22:35.105Z,103345.34
2023-02-11T04:23:06.668Z,103331.31
2023-02-11T04:23:40.785Z,103340.22
2023-02-11T04:24:12.235Z,103338.31
2023-02-11T04:24:46.426Z,103333.22
2023-02-11T04:25:21.031Z,103337.25
2023-02-11T04:25:52.863Z,103342.66
2023-02-11T04:26:24.570Z,103338.31
2023-02-11T04:26:56.469Z,103343.19
2023-02-11T04:27:28.173Z,103342.91
2023-02-11T04:27:59.651Z,103346.97
2023-02-11T04:28:37.547Z,103343.47
2023-02-11T04:29:11.006Z,103343.75
2023-02-11T04:29:42.572Z,103346.16
2023-02-11T04:30:15.510Z,103342.09
2023-02-11T04:30:49.379Z,103351.56
2023-02-11T04:31:22.628Z,103349.41
2023-02-11T04:31:55.247Z,103352.63
2023-02-11T04:32:29.793Z,103349.41
2023-02-11T04:33:02.626Z,103354.00
2023-02-11T04:33:34.315Z,103352.63
2023-02-11T04:34:05.783Z,103346.16
2023-02-11T04:34:40.050Z,103351.28
2023-02-11T04:35:11.528Z,103347.78
2023-02-11T04:35:43.002Z,103365.88
2023-02-11T04:36:14.497Z,103351.56
2023-02-11T04:36:47.162Z,103344.81
2023-02-11T04:37:18.717Z,103347.22
2023-02-11T04:37:50.208Z,103349.94
2023-02-11T04:38:24.041Z,103344.81
2023-02-11T04:38:55.465Z,103343.72
2023-02-11T04:39:27.011Z,103348.56
2023-02-11T04:39:58.534Z,103355.59
2023-02-11T04:40:30.257Z,103349.66
2023-02-11T04:41:01.936Z,103359.91
2023-02-11T04:41:34.684Z,103346.41
2023-02-11T04:42:06.521Z,103354.25
2023-02-11T04:42:39.890Z,103355.59
2023-02-11T04:43:11.408Z,103344.25
2023-02-11T04:43:45.234Z,103345.06
2023-02-11T04:44:16.640Z,103349.66
2023-02-11T04:44:48.189Z,103352.63
2023-02-11T04:45:19.639Z,103345.34
2023-02-11T04:45:51.347Z,103350.72
2023-02-11T04:46:23.228Z,103350.19
2023-02-11T04:46:54.785Z,103364.25
2023-02-11T04:47:26.257Z,103349.91
2023-02-11T04:48:02.590Z,103351.28
2023-02-11T04:48:38.850Z,103355.06
2023-02-11T04:49:19.132Z,103355.31
2023-02-11T04:49:50.763Z,103344.25
2023-02-11T04:50:24.423Z,103349.38
2023-02-11T04:50:55.915Z,103356.94
2023-02-11T04:51:27.615Z,103349.09
2023-02-11T04:52:02.259Z,103351.00
2023-02-11T04:52:33.647Z,103354.75
2023-02-11T04:53:56.832Z,103356.38
2023-02-11T04:54:28.218Z,103346.66
2023-02-11T04:55:50.719Z,103355.81
2023-02-11T04:56:22.450Z,103348.00
2023-02-11T04:56:54.173Z,103354.50
2023-02-11T04:57:28.270Z,103347.75
2023-02-11T04:57:59.707Z,103350.69
2023-02-11T04:58:37.903Z,103356.09
2023-02-11T04:59:09.663Z,103348.53
2023-02-11T04:59:42.398Z,103350.69
2023-02-11T05:00:14.907Z,103353.91
2023-02-11T05:00:46.992Z,103347.47
2023-02-11T05:01:19.764Z,103349.06
2023-02-11T05:01:51.370Z,103343.13
2023-02-11T05:02:26.611Z,103352.00
2023-02-11T05:02:58.318Z,103340.97
2023-02-11T05:03:30.327Z,103347.19
2023-02-11T05:04:02.053Z,103348.00
2023-02-11T05:04:33.570Z,103346.91
2023-02-11T05:05:05.698Z,103340.97
2023-02-11T05:05:41.309Z,103347.41
2023-02-11T05:06:13.198Z,103353.09
2023-02-11T05:06:46.871Z,103351.19
2023-02-11T05:07:20.443Z,103348.50
2023-02-11T05:07:51.834Z,103354.72
2023-02-11T05:08:23.499Z,103358.22
2023-02-11T05:08:57.222Z,103350.69
2023-02-11T05:09:28.811Z,103359.03
2023-02-11T05:10:00.433Z,103354.22
2023-02-11T05:10:32.107Z,103355.31
2023-02-11T05:11:04.273Z,103352.81
2023-02-11T05:11:36.763Z,103356.59
2023-02-11T05:12:11.065Z,103348.81
2023-02-11T05:12:42.716Z,103365.78
2023-02-11T05:13:14.154Z,103358.75
2023-02-11T05:13:48.136Z,103351.19
2023-02-11T05:14:19.694Z,103348.50
2023-02-11T05:14:53.665Z,103356.34
2023-02-11T05:15:25.304Z,103353.63
2023-02-11T05:15:56.940Z,103349.84
2023-02-11T05:16:28.473Z,103347.66
2023-02-11T05:17:00.101Z,103343.09
2023-02-11T05:17:31.682Z,103349.84
2023-02-11T05:18:06.342Z,103349.56
2023-02-11T05:18:40.929Z,103351.44
2023-02-11T05:19:12.571Z,103342.00
2023-02-11T05:19:44.108Z,103351.16
2023-02-11T05:20:18.164Z,103349.03
2023-02-11T05:20:49.728Z,103343.63
2023-02-11T05:21:21.319Z,103347.94
2023-02-11T05:22:02.220Z,103352.25
2023-02-11T05:22:34.673Z,103351.69
2023-02-11T05:23:06.195Z,103353.88
2023-02-11T05:23:40.737Z,103344.41
2023-02-11T05:24:12.281Z,103347.94
2023-02-11T05:24:43.837Z,103350.09
2023-02-11T05:25:28.230Z,103351.16
2023-02-11T05:26:00.226Z,103361.72
2023-02-11T05:26:32.778Z,103351.69
2023-02-11T05:27:04.289Z,103351.16
2023-02-11T05:27:36.261Z,103354.69
2023-02-11T05:28:09.616Z,103354.69
2023-02-11T05:28:42.515Z,103348.75
2023-02-11T05:29:14.116Z,103353.88
2023-02-11T05:29:49.526Z,103358.72
2023-02-11T05:30:23.671Z,103356.31
2023-02-11T05:30:58.488Z,103360.06
2023-02-11T05:31:30.031Z,103355.75
2023-02-11T05:32:01.594Z,103350.91
2023-02-11T05:32:33.396Z,103356.03
2023-02-11T05:33:06.317Z,103356.56
2023-02-11T05:33:40.272Z,103352.78
2023-02-11T05:34:11.827Z,103347.38
2023-02-11T05:34:43.270Z,103353.84
2023-02-11T05:35:19.276Z,103353.84
2023-02-11T05:35:51.044Z,103350.34
2023-02-11T05:36:22.649Z,103349.81
2023-02-11T05:36:56.879Z,103348.44
2023-02-11T05:37:28.728Z,103357.09
2023-02-11T05:38:03.280Z,103346.25
2023-02-11T05:38:35.853Z,103350.06
2023-02-11T05:39:07.349Z,103353.56
2023-02-11T05:39:41.148Z,103342.50
2023-02-11T05:40:12.719Z,103352.75
2023-02-11T05:40:44.398Z,103348.97
2023-02-11T05:41:19.325Z,103348.97
2023-02-11T05:41:51.062Z,103348.97
2023-02-11T05:42:22.626Z,103345.19
2023-02-11T05:42:54.379Z,103345.19
2023-02-11T05:43:26.172Z,103334.63
2023-02-11T05:43:57.720Z,103340.84
2023-02-11T05:44:31.417Z,103336.25
2023-02-11T05:45:03.567Z,103350.03
2023-02-11T05:45:36.052Z,103339.47
2023-02-11T05:46:07.670Z,103333.81
2023-02-11T05:46:39.201Z,103346.25
2023-02-11T05:47:10.826Z,103339.75
2023-02-11T05:47:42.443Z,103345.19
2023-02-11T05:48:14.374Z,103341.91
2023-02-11T05:48:45.898Z,103339.75
2023-02-11T05:49:17.679Z,103337.59
2023-02-11T05:49:54.111Z,103345.44
2023-02-11T05:50:25.972Z,103340.56
2023-02-11T05:50:57.595Z,103347.03
2023-02-11T05:51:29.191Z,103347.53
2023-02-11T05:52:00.766Z,103350.84
2023-02-11T05:52:34.665Z,103351.66
2023-02-11T05:53:06.938Z,103346.25
2023-02-11T05:53:45.834Z,103340.28
2023-02-11T05:54:17.589Z,103343.81
2023-02-11T05:54:49.195Z,103345.94
2023-02-11T05:55:20.751Z,103352.75
2023-02-11T05:55:52.476Z,103354.84
2023-02-11T05:56:26.840Z,103352.69
2023-02-11T05:57:01.271Z,103351.66
2023-02-11T05:57:32.894Z,103347.84
2023-02-11T05:58:04.868Z,103346.25
2023-02-11T05:58:36.403Z,103344.34
2023-02-11T05:59:07.900Z,103348.63
2023-02-11T05:59:39.458Z,103352.69
2023-02-11T06:00:11.805Z,103355.09
2023-02-11T06:00:45.938Z,103348.63
2023-02-11T06:01:20.559Z,103344.84
2023-02-11T06:01:52.152Z,103345.38
2023-02-11T06:02:26.629Z,103346.72
2023-02-11T06:03:01.017Z,103348.63
2023-02-11T06:03:33.582Z,103352.69
2023-02-11T06:04:05.204Z,103348.34
2023-02-11T06:04:38.075Z,103352.69
2023-02-11T06:05:09.655Z,103351.59
2023-02-11T06:05:45.589Z,103347.00
2023-02-11T06:06:19.420Z,103344.56
2023-02-11T06:06:54.196Z,103354.28
2023-02-11T06:07:25.695Z,103359.69
2023-02-11T06:08:03.178Z,103342.94
2023-02-11T06:08:35.388Z,103350.50
2023-02-11T06:09:10.007Z,103357.53
2023-02-11T06:09:41.578Z,103355.91
2023-02-11T06:10:15.450Z,103357.28
2023-02-11T06:10:47.229Z,103362.13
2023-02-11T06:11:20.507Z,103365.66
2023-02-11T06:11:52.369Z,103364.56
2023-02-11T06:12:23.821Z,103361.84
2023-02-11T06:12:55.371Z,103364.56
2023-02-11T06:13:26.765Z,103365.66
2023-02-11T06:13:58.271Z,103370.22
2023-02-11T06:14:31.853Z,103361.59
2023-02-11T06:15:06.481Z,103363.50
2023-02-11T06:15:38.208Z,103365.94
2023-02-11T06:16:10.149Z,103368.88
2023-02-11T06:16:41.581Z,103369.41
2023-02-11T06:17:15.582Z,103365.91
2023-02-11T06:17:47.411Z,103361.56
2023-02-11T06:18:20.966Z,103360.25
2023-02-11T06:18:52.410Z,103362.13
2023-02-11T06:19:24.078Z,103372.13
2023-02-11T06:20:14.128Z,103359.16
2023-02-11T06:20:45.831Z,103369.94
2023-02-11T06:21:17.429Z,103363.19
2023-02-11T06:21:49.166Z,103367.81
2023-02-11T06:22:21.033Z,103372.13
2023-02-11T06:23:42.098Z,103362.38
2023-02-11T06:24:13.574Z,103359.69
2023-02-11T06:25:00.408Z,103358.88
2023-02-11T06:25:35.612Z,103368.34
2023-02-11T06:26:09.403Z,103367.25
2023-02-11T06:26:41.073Z,103365.09
2023-02-11T06:27:12.652Z,103358.88
2023-02-11T06:27:44.227Z,103359.69
2023-02-11T06:28:21.582Z,103378.06
2023-02-11T06:28:55.357Z,103357.78
2023-02-11T06:29:29.846Z,103363.19
2023-02-11T06:30:01.519Z,103360.75
2023-02-11T06:30:33.549Z,103358.03
2023-02-11T06:31:06.927Z,103366.97
2023-02-11T06:31:39.541Z,103361.53
2023-02-11T06:32:27.815Z,103358.03
2023-02-11T06:33:02.801Z,103365.06
2023-02-11T06:33:35.282Z,103362.06
2023-02-11T06:34:08.417Z,103369.13
2023-02-11T06:34:40.073Z,103358.59
2023-02-11T06:35:14.153Z,103362.88
2023-02-11T06:35:45.689Z,103360.19
2023-02-11T06:36:19.439Z,103362.88
2023-02-11T06:36:53.202Z,103360.47
2023-02-11T06:37:24.640Z,103367.22
2023-02-11T06:37:56.149Z,103366.94
2023-02-11T06:38:29.814Z,103359.38
2023-02-11T06:39:01.504Z,103355.84
2023-02-11T06:39:33.417Z,103353.97
2023-02-11T06:40:05.229Z,103358.50
2023-02-11T06:40:41.632Z,103363.09
2023-02-11T06:41:15.741Z,103361.22
2023-02-11T06:41:47.373Z,103350.97
2023-02-11T06:42:18.825Z,103356.91
2023-02-11T06:42:50.251Z,103362.81
2023-02-11T06:43:23.043Z,103357.41
2023-02-11T06:43:54.908Z,103353.09
2023-02-11T06:44:28.778Z,103355.78
2023-02-11T06:45:00.435Z,103359.31
2023-02-11T06:45:31.963Z,103359.03
2023-02-11T06:46:04.801Z,103365.78
2023-02-11T06:46:42.062Z,103356.59
2023-02-11T06:47:13.669Z,103349.28
2023-02-11T06:47:45.198Z,103354.69
2023-02-11T06:48:19.688Z,103353.91
2023-02-11T06:48:51.179Z,103350.63
2023-02-11T06:49:22.613Z,103360.38
2023-02-11T06:49:56.679Z,103355.75
2023-02-11T06:50:31.037Z,103352.81
2023-02-11T06:51:08.226Z,103354.66
2023-02-11T06:51:43.062Z,103353.34
2023-02-11T06:52:17.532Z,103352.25
2023-02-11T06:52:48.998Z,103347.09
2023-02-11T06:53:20.515Z,103347.91
2023-02-11T06:54:41.000Z,103353.28
2023-02-11T06:55:12.354Z,103362.22